sensor_id;sensor_type;location;lat;lon;timestamp;temperature;humidity
4081;DHT22;2055;50.074;8.436;2024-03-02T13:29:02;19.60;99.90
4081;DHT22;2055;50.074;8.436;2024-03-02T13:31:28;17.80;99.90
4081;DHT22;2055;50.074;8.436;2024-03-02T13:33:54;17.20;99.90
4081;DHT22;2055;50.074;8.436;2024-03-02T13:36:19;17.50;99.90
4081;DHT22;2055;50.074;8.436;2024-03-02T13:38:45;17.50;99.90
4081;DHT22;2055;50.074;8.436;2024-03-02T13:41:10;18.10;99.90
4081;DHT22;2055;50.074;8.436;2024-03-02T13:43:37;18.50;99.90
4081;DHT22;2055;50.074;8.436;2024-03-02T13:46:04;19.40;99.90
4081;DHT22;2055;50.074;8.436;2024-03-02T13:48:29;21.60;99.90
4081;DHT22;2055;50.074;8.436;2024-03-02T13:50:56;22.60;99.90
4081;DHT22;2055;50.074;8.436;2024-03-02T13:53:21;22.70;99.90
4081;DHT22;2055;50.074;8.436;2024-03-02T13:55:47;19.20;99.90
4081;DHT22;2055;50.074;8.436;2024-03-02T13:58:13;18.50;99.90
4081;DHT22;2055;50.074;8.436;2024-03-02T14:00:39;21.10;99.90
4081;DHT22;2055;50.074;8.436;2024-03-02T14:03:06;21.90;99.90
4081;DHT22;2055;50.074;8.436;2024-03-02T14:05:32;21.80;99.90
4081;DHT22;2055;50.074;8.436;2024-03-02T14:07:58;22.70;99.90
4081;DHT22;2055;50.074;8.436;2024-03-02T14:10:25;22.50;99.90
4081;DHT22;2055;50.074;8.436;2024-03-02T14:12:50;23.70;99.90
4081;DHT22;2055;50.074;8.436;2024-03-02T14:15:16;24.60;99.90
4081;DHT22;2055;50.074;8.436;2024-03-02T14:17:41;23.60;99.90
4081;DHT22;2055;50.074;8.436;2024-03-02T14:20:08;23.50;99.90
4081;DHT22;2055;50.074;8.436;2024-03-02T14:22:36;23.70;99.90
4081;DHT22;2055;50.074;8.436;2024-03-02T14:25:03;25.60;99.90
4081;DHT22;2055;50.074;8.436;2024-03-02T14:27:28;23.80;99.90
4081;DHT22;2055;50.074;8.436;2024-03-02T14:29:54;23.50;99.90
4081;DHT22;2055;50.074;8.436;2024-03-02T14:32:20;23.00;99.90
4081;DHT22;2055;50.074;8.436;2024-03-02T14:34:45;22.80;99.90
4081;DHT22;2055;50.074;8.436;2024-03-02T14:37:13;23.70;99.90
4081;DHT22;2055;50.074;8.436;2024-03-02T14:39:39;23.10;99.90
4081;DHT22;2055;50.074;8.436;2024-03-02T14:42:05;22.20;99.90
4081;DHT22;2055;50.074;8.436;2024-03-02T14:44:31;22.60;99.90
4081;DHT22;2055;50.074;8.436;2024-03-02T14:46:56;23.10;99.90
4081;DHT22;2055;50.074;8.436;2024-03-02T14:49:24;22.10;99.90
4081;DHT22;2055;50.074;8.436;2024-03-02T14:51:50;21.20;99.90
4081;DHT22;2055;50.074;8.436;2024-03-02T14:54:15;20.20;99.90
4081;DHT22;2055;50.074;8.436;2024-03-02T14:56:41;20.40;99.90
4081;DHT22;2055;50.074;8.436;2024-03-02T14:59:06;19.80;99.90
4081;DHT22;2055;50.074;8.436;2024-03-02T15:01:32;19.80;99.90
4081;DHT22;2055;50.074;8.436;2024-03-02T15:03:58;20.90;99.90
4081;DHT22;2055;50.074;8.436;2024-03-02T15:06:23;20.80;99.90
4081;DHT22;2055;50.074;8.436;2024-03-02T15:08:49;19.90;99.90
4081;DHT22;2055;50.074;8.436;2024-03-02T15:11:15;19.50;99.90
4081;DHT22;2055;50.074;8.436;2024-03-02T15:13:40;21.80;99.90
4081;DHT22;2055;50.074;8.436;2024-03-02T15:16:07;18.30;99.90
4081;DHT22;2055;50.074;8.436;2024-03-02T15:18:32;17.10;99.90
4081;DHT22;2055;50.074;8.436;2024-03-02T15:21:00;16.70;99.90
4081;DHT22;2055;50.074;8.436;2024-03-02T15:23:25;16.30;99.90
4081;DHT22;2055;50.074;8.436;2024-03-02T15:25:51;16.30;99.90
4081;DHT22;2055;50.074;8.436;2024-03-02T15:28:16;16.40;99.90
4081;DHT22;2055;50.074;8.436;2024-03-02T15:30:42;18.70;99.90
4081;DHT22;2055;50.074;8.436;2024-03-02T15:33:07;16.30;99.90
4081;DHT22;2055;50.074;8.436;2024-03-02T15:35:33;16.90;99.90
4081;DHT22;2055;50.074;8.436;2024-03-02T15:37:59;17.10;99.90
4081;DHT22;2055;50.074;8.436;2024-03-02T15:40:25;16.90;99.90
4081;DHT22;2055;50.074;8.436;2024-03-02T15:42:50;16.60;99.90
4081;DHT22;2055;50.074;8.436;2024-03-02T15:45:16;18.40;99.90
4081;DHT22;2055;50.074;8.436;2024-03-02T15:47:42;15.60;99.90
4081;DHT22;2055;50.074;8.436;2024-03-02T15:50:07;15.20;99.90
4081;DHT22;2055;50.074;8.436;2024-03-02T15:52:33;14.80;99.90
4081;DHT22;2055;50.074;8.436;2024-03-02T15:54:59;14.50;99.90
4081;DHT22;2055;50.074;8.436;2024-03-02T15:57:24;14.10;99.90
4081;DHT22;2055;50.074;8.436;2024-03-02T15:59:51;13.70;99.90
4081;DHT22;2055;50.074;8.436;2024-03-02T16:02:16;13.40;99.90
4081;DHT22;2055;50.074;8.436;2024-03-02T16:04:42;13.20;99.90
4081;DHT22;2055;50.074;8.436;2024-03-02T16:07:08;15.40;99.90
4081;DHT22;2055;50.074;8.436;2024-03-02T16:09:33;12.70;99.90
4081;DHT22;2055;50.074;8.436;2024-03-02T16:11:59;12.50;99.90
4081;DHT22;2055;50.074;8.436;2024-03-02T16:14:24;12.30;99.90
4081;DHT22;2055;50.074;8.436;2024-03-02T16:16:50;11.90;99.90
4081;DHT22;2055;50.074;8.436;2024-03-02T16:19:16;11.70;99.90
4081;DHT22;2055;50.074;8.436;2024-03-02T16:21:41;12.30;99.90
4081;DHT22;2055;50.074;8.436;2024-03-02T16:24:08;13.70;99.90
4081;DHT22;2055;50.074;8.436;2024-03-02T16:26:33;11.40;99.90
4081;DHT22;2055;50.074;8.436;2024-03-02T16:28:59;11.40;99.90
4081;DHT22;2055;50.074;8.436;2024-03-02T16:31:25;11.50;99.90
4081;DHT22;2055;50.074;8.436;2024-03-02T16:33:51;11.50;99.90
4081;DHT22;2055;50.074;8.436;2024-03-02T16:36:17;11.40;99.90
4081;DHT22;2055;50.074;8.436;2024-03-02T16:38:43;11.40;99.90
4081;DHT22;2055;50.074;8.436;2024-03-02T16:41:09;11.30;99.90
4081;DHT22;2055;50.074;8.436;2024-03-02T16:43:35;11.10;99.90
4081;DHT22;2055;50.074;8.436;2024-03-02T16:46:00;11.10;99.90
4081;DHT22;2055;50.074;8.436;2024-03-02T16:48:26;11.00;99.90
4081;DHT22;2055;50.074;8.436;2024-03-02T16:50:51;11.00;99.90
4081;DHT22;2055;50.074;8.436;2024-03-02T16:53:17;11.10;99.90
4081;DHT22;2055;50.074;8.436;2024-03-02T16:55:42;10.60;99.90
4081;DHT22;2055;50.074;8.436;2024-03-02T16:58:08;10.90;99.90
4081;DHT22;2055;50.074;8.436;2024-03-02T17:00:34;11.00;99.90
4081;DHT22;2055;50.074;8.436;2024-03-02T17:03:00;10.80;99.90
4081;DHT22;2055;50.074;8.436;2024-03-02T17:05:25;7.70;99.90
4081;DHT22;2055;50.074;8.436;2024-03-02T17:07:51;10.70;99.90
4081;DHT22;2055;50.074;8.436;2024-03-02T17:10:18;10.60;99.90
4081;DHT22;2055;50.074;8.436;2024-03-02T17:12:43;10.50;99.90
4081;DHT22;2055;50.074;8.436;2024-03-02T17:15:09;10.50;99.90
4081;DHT22;2055;50.074;8.436;2024-03-02T17:17:35;10.50;99.90
4081;DHT22;2055;50.074;8.436;2024-03-02T17:20:00;10.40;99.90
4081;DHT22;2055;50.074;8.436;2024-03-02T17:22:30;10.30;99.90
4081;DHT22;2055;50.074;8.436;2024-03-02T17:24:57;10.40;99.90
4081;DHT22;2055;50.074;8.436;2024-03-02T17:27:22;10.50;99.90
4081;DHT22;2055;50.074;8.436;2024-03-02T17:29:48;12.10;99.90
4081;DHT22;2055;50.074;8.436;2024-03-02T17:32:13;13.30;99.90
4081;DHT22;2055;50.074;8.436;2024-03-02T17:34:39;10.60;99.90
4081;DHT22;2055;50.074;8.436;2024-03-02T17:37:04;10.60;99.90
4081;DHT22;2055;50.074;8.436;2024-03-02T17:39:30;10.70;99.90
4081;DHT22;2055;50.074;8.436;2024-03-02T17:41:55;10.80;99.90
4081;DHT22;2055;50.074;8.436;2024-03-02T17:44:21;14.00;99.90
4081;DHT22;2055;50.074;8.436;2024-03-02T17:46:47;10.70;99.90
4081;DHT22;2055;50.074;8.436;2024-03-02T17:49:12;10.80;99.90
4081;DHT22;2055;50.074;8.436;2024-03-02T17:51:38;10.80;99.90
4081;DHT22;2055;50.074;8.436;2024-03-02T17:54:04;10.70;99.90
4081;DHT22;2055;50.074;8.436;2024-03-02T17:56:29;10.80;99.90
4081;DHT22;2055;50.074;8.436;2024-03-02T17:58:55;10.90;99.90
4081;DHT22;2055;50.074;8.436;2024-03-02T18:01:21;10.90;99.90
4081;DHT22;2055;50.074;8.436;2024-03-02T18:03:47;11.00;99.90
4081;DHT22;2055;50.074;8.436;2024-03-02T18:06:13;11.00;99.90
4081;DHT22;2055;50.074;8.436;2024-03-02T18:08:38;11.00;99.90
4081;DHT22;2055;50.074;8.436;2024-03-02T18:11:04;11.00;99.90
4081;DHT22;2055;50.074;8.436;2024-03-02T18:13:31;11.00;99.90
4081;DHT22;2055;50.074;8.436;2024-03-02T18:15:59;14.20;99.90
4081;DHT22;2055;50.074;8.436;2024-03-02T18:18:25;13.30;99.90
4081;DHT22;2055;50.074;8.436;2024-03-02T18:20:50;11.10;99.90
4081;DHT22;2055;50.074;8.436;2024-03-02T18:23:16;11.20;99.90
4081;DHT22;2055;50.074;8.436;2024-03-02T18:25:41;11.00;99.90
4081;DHT22;2055;50.074;8.436;2024-03-02T18:28:11;11.00;99.90
4081;DHT22;2055;50.074;8.436;2024-03-02T18:30:37;11.00;99.90
4081;DHT22;2055;50.074;8.436;2024-03-02T18:33:02;10.90;99.90
4081;DHT22;2055;50.074;8.436;2024-03-02T18:35:29;11.10;99.90
4081;DHT22;2055;50.074;8.436;2024-03-02T18:37:55;11.00;99.90
4081;DHT22;2055;50.074;8.436;2024-03-02T18:40:20;10.90;99.90
4081;DHT22;2055;50.074;8.436;2024-03-02T18:42:46;13.60;99.90
4081;DHT22;2055;50.074;8.436;2024-03-02T18:45:11;10.80;99.90
4081;DHT22;2055;50.074;8.436;2024-03-02T18:47:37;10.80;99.90
4081;DHT22;2055;50.074;8.436;2024-03-02T18:50:05;10.70;99.90
4081;DHT22;2055;50.074;8.436;2024-03-02T18:52:34;10.70;99.90
4081;DHT22;2055;50.074;8.436;2024-03-02T18:55:02;10.70;99.90
4081;DHT22;2055;50.074;8.436;2024-03-02T18:57:28;10.70;99.90
4081;DHT22;2055;50.074;8.436;2024-03-02T18:59:53;10.60;99.90
4081;DHT22;2055;50.074;8.436;2024-03-02T19:02:19;10.60;99.90
4081;DHT22;2055;50.074;8.436;2024-03-02T19:04:44;10.60;99.90
4081;DHT22;2055;50.074;8.436;2024-03-02T19:07:12;10.50;99.90
4081;DHT22;2055;50.074;8.436;2024-03-02T19:09:39;13.70;99.90
4081;DHT22;2055;50.074;8.436;2024-03-02T19:12:05;10.40;99.90
4081;DHT22;2055;50.074;8.436;2024-03-02T19:14:30;10.40;99.90
4081;DHT22;2055;50.074;8.436;2024-03-02T19:16:56;14.10;99.90
4081;DHT22;2055;50.074;8.436;2024-03-02T19:19:21;10.40;99.90
4081;DHT22;2055;50.074;8.436;2024-03-02T19:21:48;11.40;99.90
4081;DHT22;2055;50.074;8.436;2024-03-02T19:24:14;10.30;99.90
4081;DHT22;2055;50.074;8.436;2024-03-02T19:26:40;10.00;99.90
4081;DHT22;2055;50.074;8.436;2024-03-02T19:29:06;10.00;99.90
4081;DHT22;2055;50.074;8.436;2024-03-02T19:31:32;9.90;99.90
4081;DHT22;2055;50.074;8.436;2024-03-02T19:33:57;9.90;99.90
4081;DHT22;2055;50.074;8.436;2024-03-02T19:36:23;11.10;99.90
4081;DHT22;2055;50.074;8.436;2024-03-02T19:38:50;9.80;99.90
4081;DHT22;2055;50.074;8.436;2024-03-02T19:41:15;9.70;99.90
4081;DHT22;2055;50.074;8.436;2024-03-02T19:43:43;9.60;99.90
4081;DHT22;2055;50.074;8.436;2024-03-02T19:46:10;9.60;99.90
4081;DHT22;2055;50.074;8.436;2024-03-02T19:48:35;9.60;99.90
4081;DHT22;2055;50.074;8.436;2024-03-02T19:51:01;9.50;99.90
4081;DHT22;2055;50.074;8.436;2024-03-02T19:53:26;9.60;99.90
4081;DHT22;2055;50.074;8.436;2024-03-02T19:55:52;9.60;99.90
4081;DHT22;2055;50.074;8.436;2024-03-02T19:58:17;9.70;99.90
4081;DHT22;2055;50.074;8.436;2024-03-02T20:00:43;9.70;99.90
4081;DHT22;2055;50.074;8.436;2024-03-02T20:03:09;9.60;99.90
4081;DHT22;2055;50.074;8.436;2024-03-02T20:05:34;9.50;99.90
4081;DHT22;2055;50.074;8.436;2024-03-02T20:08:00;9.80;99.90
4081;DHT22;2055;50.074;8.436;2024-03-02T20:10:25;11.50;99.90
4081;DHT22;2055;50.074;8.436;2024-03-02T20:12:51;9.80;99.90
4081;DHT22;2055;50.074;8.436;2024-03-02T20:15:16;9.70;99.90
4081;DHT22;2055;50.074;8.436;2024-03-02T20:17:45;9.60;99.90
4081;DHT22;2055;50.074;8.436;2024-03-02T20:20:13;9.60;99.90
4081;DHT22;2055;50.074;8.436;2024-03-02T20:22:39;9.50;99.90
4081;DHT22;2055;50.074;8.436;2024-03-02T20:25:05;9.50;99.90
4081;DHT22;2055;50.074;8.436;2024-03-02T20:27:31;9.40;99.90
4081;DHT22;2055;50.074;8.436;2024-03-02T20:29:57;9.30;99.90
4081;DHT22;2055;50.074;8.436;2024-03-02T20:32:22;9.20;99.90
4081;DHT22;2055;50.074;8.436;2024-03-02T20:34:48;9.30;99.90
4081;DHT22;2055;50.074;8.436;2024-03-02T20:37:14;9.20;99.90
4081;DHT22;2055;50.074;8.436;2024-03-02T20:39:39;9.10;99.90
4081;DHT22;2055;50.074;8.436;2024-03-02T20:42:05;9.10;99.90
4081;DHT22;2055;50.074;8.436;2024-03-02T20:44:31;9.20;99.90
4081;DHT22;2055;50.074;8.436;2024-03-02T20:46:57;8.30;99.90
4081;DHT22;2055;50.074;8.436;2024-03-02T20:49:22;9.20;99.90
4081;DHT22;2055;50.074;8.436;2024-03-02T20:51:49;9.10;99.90
4081;DHT22;2055;50.074;8.436;2024-03-02T20:54:14;9.20;99.90
4081;DHT22;2055;50.074;8.436;2024-03-02T20:56:40;9.20;99.90
4081;DHT22;2055;50.074;8.436;2024-03-02T20:59:08;9.20;99.90
4081;DHT22;2055;50.074;8.436;2024-03-02T21:01:34;9.10;99.90
4081;DHT22;2055;50.074;8.436;2024-03-02T21:04:00;9.10;99.90
4081;DHT22;2055;50.074;8.436;2024-03-02T21:06:26;9.20;99.90
4081;DHT22;2055;50.074;8.436;2024-03-02T21:08:51;8.90;99.90
4081;DHT22;2055;50.074;8.436;2024-03-02T21:11:17;8.80;99.90
4081;DHT22;2055;50.074;8.436;2024-03-02T21:13:44;8.70;99.90
4081;DHT22;2055;50.074;8.436;2024-03-02T21:16:10;8.60;99.90
4081;DHT22;2055;50.074;8.436;2024-03-02T21:18:36;8.50;99.90
4081;DHT22;2055;50.074;8.436;2024-03-02T21:21:04;8.50;99.90
4081;DHT22;2055;50.074;8.436;2024-03-02T21:23:30;8.60;99.90
4081;DHT22;2055;50.074;8.436;2024-03-02T21:25:56;11.00;99.90
4081;DHT22;2055;50.074;8.436;2024-03-02T21:28:21;8.60;99.90
4081;DHT22;2055;50.074;8.436;2024-03-02T21:30:47;8.60;99.90
4081;DHT22;2055;50.074;8.436;2024-03-02T21:33:13;8.60;99.90
4081;DHT22;2055;50.074;8.436;2024-03-02T21:35:39;8.60;99.90
4081;DHT22;2055;50.074;8.436;2024-03-02T21:38:04;10.40;99.90
4081;DHT22;2055;50.074;8.436;2024-03-02T21:40:32;8.50;99.90
4081;DHT22;2055;50.074;8.436;2024-03-02T21:42:58;8.60;99.90
4081;DHT22;2055;50.074;8.436;2024-03-02T21:45:24;8.50;99.90
4081;DHT22;2055;50.074;8.436;2024-03-02T21:47:50;8.50;99.90
4081;DHT22;2055;50.074;8.436;2024-03-02T21:50:15;8.60;99.90
4081;DHT22;2055;50.074;8.436;2024-03-02T21:52:42;8.60;99.90
4081;DHT22;2055;50.074;8.436;2024-03-02T21:55:08;8.50;99.90
4081;DHT22;2055;50.074;8.436;2024-03-02T21:57:35;8.50;99.90
4081;DHT22;2055;50.074;8.436;2024-03-02T22:00:01;11.70;99.90
4081;DHT22;2055;50.074;8.436;2024-03-02T22:02:26;8.50;99.90
4081;DHT22;2055;50.074;8.436;2024-03-02T22:04:52;8.40;99.90
4081;DHT22;2055;50.074;8.436;2024-03-02T22:07:17;8.40;99.90
4081;DHT22;2055;50.074;8.436;2024-03-02T22:09:43;8.40;99.90
4081;DHT22;2055;50.074;8.436;2024-03-02T22:12:09;8.30;99.90
4081;DHT22;2055;50.074;8.436;2024-03-02T22:14:37;8.30;99.90
4081;DHT22;2055;50.074;8.436;2024-03-02T22:17:03;8.30;99.90
4081;DHT22;2055;50.074;8.436;2024-03-02T22:19:28;8.40;99.90
4081;DHT22;2055;50.074;8.436;2024-03-02T22:21:54;8.20;99.90
4081;DHT22;2055;50.074;8.436;2024-03-02T22:24:19;8.10;99.90
4081;DHT22;2055;50.074;8.436;2024-03-02T22:26:45;8.10;99.90
4081;DHT22;2055;50.074;8.436;2024-03-02T22:29:10;8.20;99.90
4081;DHT22;2055;50.074;8.436;2024-03-02T22:31:36;8.20;99.90
4081;DHT22;2055;50.074;8.436;2024-03-02T22:34:02;8.20;99.90
4081;DHT22;2055;50.074;8.436;2024-03-02T22:36:27;8.20;99.90
4081;DHT22;2055;50.074;8.436;2024-03-02T22:38:53;8.30;99.90
4081;DHT22;2055;50.074;8.436;2024-03-02T22:41:18;8.40;99.90
4081;DHT22;2055;50.074;8.436;2024-03-02T22:43:44;8.30;99.90
4081;DHT22;2055;50.074;8.436;2024-03-02T22:46:12;8.30;99.90
4081;DHT22;2055;50.074;8.436;2024-03-02T22:48:38;8.20;99.90
4081;DHT22;2055;50.074;8.436;2024-03-02T22:51:04;8.20;99.90
4081;DHT22;2055;50.074;8.436;2024-03-02T22:53:29;8.30;99.90
4081;DHT22;2055;50.074;8.436;2024-03-02T22:55:55;8.40;99.90
4081;DHT22;2055;50.074;8.436;2024-03-02T22:58:20;8.30;99.90
4081;DHT22;2055;50.074;8.436;2024-03-02T23:00:46;10.90;99.90
4081;DHT22;2055;50.074;8.436;2024-03-02T23:03:17;8.40;99.90
4081;DHT22;2055;50.074;8.436;2024-03-02T23:05:43;8.30;99.90
4081;DHT22;2055;50.074;8.436;2024-03-02T23:08:09;8.30;99.90
4081;DHT22;2055;50.074;8.436;2024-03-02T23:10:35;8.30;99.90
4081;DHT22;2055;50.074;8.436;2024-03-02T23:13:00;8.30;99.90
4081;DHT22;2055;50.074;8.436;2024-03-02T23:15:26;8.10;99.90
4081;DHT22;2055;50.074;8.436;2024-03-02T23:17:58;8.10;99.90
4081;DHT22;2055;50.074;8.436;2024-03-02T23:20:24;8.10;99.90
4081;DHT22;2055;50.074;8.436;2024-03-02T23:22:50;8.60;99.90
4081;DHT22;2055;50.074;8.436;2024-03-02T23:25:16;8.40;99.90
4081;DHT22;2055;50.074;8.436;2024-03-02T23:27:41;8.10;99.90
4081;DHT22;2055;50.074;8.436;2024-03-02T23:30:08;8.10;99.90
4081;DHT22;2055;50.074;8.436;2024-03-02T23:32:34;8.00;99.90
4081;DHT22;2055;50.074;8.436;2024-03-02T23:35:00;8.00;99.90
4081;DHT22;2055;50.074;8.436;2024-03-02T23:37:26;8.00;99.90
4081;DHT22;2055;50.074;8.436;2024-03-02T23:39:55;8.20;99.90
4081;DHT22;2055;50.074;8.436;2024-03-02T23:42:29;8.10;99.90
4081;DHT22;2055;50.074;8.436;2024-03-02T23:44:55;8.20;99.90
4081;DHT22;2055;50.074;8.436;2024-03-02T23:47:21;8.10;99.90
4081;DHT22;2055;50.074;8.436;2024-03-02T23:49:47;8.10;99.90
4081;DHT22;2055;50.074;8.436;2024-03-02T23:52:13;8.10;99.90
4081;DHT22;2055;50.074;8.436;2024-03-02T23:54:39;9.20;99.90
4081;DHT22;2055;50.074;8.436;2024-03-02T23:57:05;8.10;99.90
4081;DHT22;2055;50.074;8.436;2024-03-02T23:59:32;8.10;99.90
